sensor_id;sensor_type;location;lat;lon;timestamp;P1;durP1;ratioP1;P2;durP2;ratioP2
14619;SDS011;32125;48.518;9.050;2022-08-25T00:06:00;3.97;;;3.63;;
14619;SDS011;32125;48.518;9.050;2022-08-25T00:08:27;3.83;;;3.53;;
14619;SDS011;32125;48.518;9.050;2022-08-25T00:10:53;3.77;;;3.47;;
14619;SDS011;32125;48.518;9.050;2022-08-25T00:13:21;4.00;;;3.70;;
14619;SDS011;32125;48.518;9.050;2022-08-25T00:15:47;4.20;;;3.80;;
14619;SDS011;32125;48.518;9.050;2022-08-25T00:18:12;4.13;;;3.83;;
14619;SDS011;32125;48.518;9.050;2022-08-25T00:20:38;3.63;;;3.30;;
14619;SDS011;32125;48.518;9.050;2022-08-25T00:23:04;4.00;;;3.60;;
14619;SDS011;32125;48.518;9.050;2022-08-25T00:25:32;4.10;;;3.70;;
14619;SDS011;32125;48.518;9.050;2022-08-25T00:27:58;4.13;;;3.70;;
14619;SDS011;32125;48.518;9.050;2022-08-25T00:30:26;4.20;;;3.80;;
14619;SDS011;32125;48.518;9.050;2022-08-25T00:32:52;4.67;;;3.80;;
14619;SDS011;32125;48.518;9.050;2022-08-25T00:35:17;4.07;;;3.63;;
14619;SDS011;32125;48.518;9.050;2022-08-25T00:37:46;5.27;;;3.77;;
14619;SDS011;32125;48.518;9.050;2022-08-25T00:40:12;3.60;;;3.30;;
14619;SDS011;32125;48.518;9.050;2022-08-25T00:42:38;4.50;;;3.60;;
14619;SDS011;32125;48.518;9.050;2022-08-25T00:45:05;4.33;;;3.63;;
14619;SDS011;32125;48.518;9.050;2022-08-25T00:47:34;4.00;;;3.57;;
14619;SDS011;32125;48.518;9.050;2022-08-25T00:50:03;3.77;;;3.50;;
14619;SDS011;32125;48.518;9.050;2022-08-25T00:52:37;4.00;;;3.60;;
14619;SDS011;32125;48.518;9.050;2022-08-25T00:55:15;3.67;;;3.37;;
14619;SDS011;32125;48.518;9.050;2022-08-25T00:57:43;3.70;;;3.40;;
14619;SDS011;32125;48.518;9.050;2022-08-25T01:00:14;4.03;;;3.63;;
14619;SDS011;32125;48.518;9.050;2022-08-25T01:02:41;4.10;;;3.70;;
14619;SDS011;32125;48.518;9.050;2022-08-25T01:05:07;4.20;;;3.80;;
14619;SDS011;32125;48.518;9.050;2022-08-25T01:07:35;3.70;;;3.30;;
14619;SDS011;32125;48.518;9.050;2022-08-25T01:10:03;4.00;;;3.70;;
14619;SDS011;32125;48.518;9.050;2022-08-25T01:12:31;4.17;;;3.30;;
14619;SDS011;32125;48.518;9.050;2022-08-25T01:14:57;4.20;;;3.70;;
14619;SDS011;32125;48.518;9.050;2022-08-25T01:20:17;4.33;;;3.50;;
14619;SDS011;32125;48.518;9.050;2022-08-25T01:22:44;3.90;;;3.50;;
14619;SDS011;32125;48.518;9.050;2022-08-25T01:27:44;3.70;;;3.40;;
14619;SDS011;32125;48.518;9.050;2022-08-25T01:30:15;4.67;;;3.90;;
14619;SDS011;32125;48.518;9.050;2022-08-25T01:32:41;3.90;;;3.60;;
14619;SDS011;32125;48.518;9.050;2022-08-25T01:35:07;3.93;;;3.60;;
14619;SDS011;32125;48.518;9.050;2022-08-25T01:37:35;4.10;;;3.70;;
14619;SDS011;32125;48.518;9.050;2022-08-25T01:40:02;3.90;;;3.60;;
14619;SDS011;32125;48.518;9.050;2022-08-25T01:45:09;3.53;;;3.23;;
14619;SDS011;32125;48.518;9.050;2022-08-25T01:47:35;4.13;;;3.80;;
14619;SDS011;32125;48.518;9.050;2022-08-25T01:50:02;4.33;;;3.93;;
14619;SDS011;32125;48.518;9.050;2022-08-25T01:52:40;3.93;;;3.60;;
14619;SDS011;32125;48.518;9.050;2022-08-25T01:55:15;5.80;;;3.50;;
14619;SDS011;32125;48.518;9.050;2022-08-25T01:57:41;3.77;;;3.47;;
14619;SDS011;32125;48.518;9.050;2022-08-25T02:00:08;3.90;;;3.60;;
14619;SDS011;32125;48.518;9.050;2022-08-25T02:02:37;4.00;;;3.70;;
14619;SDS011;32125;48.518;9.050;2022-08-25T02:05:03;6.10;;;3.97;;
14619;SDS011;32125;48.518;9.050;2022-08-25T02:07:30;4.10;;;3.80;;
14619;SDS011;32125;48.518;9.050;2022-08-25T02:09:56;3.70;;;3.40;;
14619;SDS011;32125;48.518;9.050;2022-08-25T02:12:26;4.03;;;3.63;;
14619;SDS011;32125;48.518;9.050;2022-08-25T02:14:55;3.97;;;3.67;;
14619;SDS011;32125;48.518;9.050;2022-08-25T02:17:23;3.87;;;3.57;;
14619;SDS011;32125;48.518;9.050;2022-08-25T02:19:49;4.10;;;3.80;;
14619;SDS011;32125;48.518;9.050;2022-08-25T02:22:15;3.90;;;3.60;;
14619;SDS011;32125;48.518;9.050;2022-08-25T02:24:42;4.87;;;3.73;;
14619;SDS011;32125;48.518;9.050;2022-08-25T02:27:07;4.30;;;4.00;;
14619;SDS011;32125;48.518;9.050;2022-08-25T02:29:36;4.23;;;3.83;;
14619;SDS011;32125;48.518;9.050;2022-08-25T02:32:02;4.37;;;3.97;;
14619;SDS011;32125;48.518;9.050;2022-08-25T02:34:27;6.17;;;3.97;;
14619;SDS011;32125;48.518;9.050;2022-08-25T02:36:56;5.30;;;4.10;;
14619;SDS011;32125;48.518;9.050;2022-08-25T02:39:22;5.23;;;4.00;;
14619;SDS011;32125;48.518;9.050;2022-08-25T02:41:53;3.90;;;3.60;;
14619;SDS011;32125;48.518;9.050;2022-08-25T02:44:19;8.50;;;4.10;;
14619;SDS011;32125;48.518;9.050;2022-08-25T02:46:44;4.37;;;3.97;;
14619;SDS011;32125;48.518;9.050;2022-08-25T02:49:12;4.20;;;3.80;;
14619;SDS011;32125;48.518;9.050;2022-08-25T02:51:43;4.83;;;3.70;;
14619;SDS011;32125;48.518;9.050;2022-08-25T02:54:13;4.77;;;3.67;;
14619;SDS011;32125;48.518;9.050;2022-08-25T02:56:42;4.73;;;4.10;;
14619;SDS011;32125;48.518;9.050;2022-08-25T02:59:10;4.77;;;3.80;;
14619;SDS011;32125;48.518;9.050;2022-08-25T03:01:35;4.30;;;3.87;;
14619;SDS011;32125;48.518;9.050;2022-08-25T03:04:01;4.33;;;3.83;;
14619;SDS011;32125;48.518;9.050;2022-08-25T03:06:31;4.10;;;3.80;;
14619;SDS011;32125;48.518;9.050;2022-08-25T03:08:56;4.67;;;3.77;;
14619;SDS011;32125;48.518;9.050;2022-08-25T03:11:22;4.33;;;3.90;;
14619;SDS011;32125;48.518;9.050;2022-08-25T03:13:50;4.80;;;3.90;;
14619;SDS011;32125;48.518;9.050;2022-08-25T03:16:17;3.90;;;3.50;;
14619;SDS011;32125;48.518;9.050;2022-08-25T03:18:45;4.10;;;3.73;;
14619;SDS011;32125;48.518;9.050;2022-08-25T03:21:13;5.43;;;3.67;;
14619;SDS011;32125;48.518;9.050;2022-08-25T03:23:40;5.50;;;3.90;;
14619;SDS011;32125;48.518;9.050;2022-08-25T03:26:07;4.23;;;3.90;;
14619;SDS011;32125;48.518;9.050;2022-08-25T03:28:51;4.50;;;4.10;;
14619;SDS011;32125;48.518;9.050;2022-08-25T03:31:19;4.87;;;3.87;;
14619;SDS011;32125;48.518;9.050;2022-08-25T03:33:45;4.70;;;3.80;;
14619;SDS011;32125;48.518;9.050;2022-08-25T03:36:11;5.23;;;4.20;;
14619;SDS011;32125;48.518;9.050;2022-08-25T03:38:37;4.20;;;3.80;;
14619;SDS011;32125;48.518;9.050;2022-08-25T03:41:14;4.20;;;3.90;;
14619;SDS011;32125;48.518;9.050;2022-08-25T03:43:44;5.20;;;3.70;;
14619;SDS011;32125;48.518;9.050;2022-08-25T03:46:15;4.60;;;4.20;;
14619;SDS011;32125;48.518;9.050;2022-08-25T03:48:41;4.37;;;3.97;;
14619;SDS011;32125;48.518;9.050;2022-08-25T03:51:09;4.30;;;3.90;;
14619;SDS011;32125;48.518;9.050;2022-08-25T03:53:35;4.43;;;4.13;;
14619;SDS011;32125;48.518;9.050;2022-08-25T03:56:03;4.40;;;4.00;;
14619;SDS011;32125;48.518;9.050;2022-08-25T03:58:29;4.57;;;4.00;;
14619;SDS011;32125;48.518;9.050;2022-08-25T04:00:55;4.10;;;3.70;;
14619;SDS011;32125;48.518;9.050;2022-08-25T04:03:24;4.20;;;3.90;;
14619;SDS011;32125;48.518;9.050;2022-08-25T04:05:52;4.30;;;3.90;;
14619;SDS011;32125;48.518;9.050;2022-08-25T04:08:20;4.40;;;4.10;;
14619;SDS011;32125;48.518;9.050;2022-08-25T04:10:49;4.50;;;4.10;;
14619;SDS011;32125;48.518;9.050;2022-08-25T04:13:15;5.50;;;4.00;;
14619;SDS011;32125;48.518;9.050;2022-08-25T04:15:42;4.50;;;4.10;;
14619;SDS011;32125;48.518;9.050;2022-08-25T04:18:08;4.47;;;4.07;;
14619;SDS011;32125;48.518;9.050;2022-08-25T04:20:36;7.93;;;4.33;;
14619;SDS011;32125;48.518;9.050;2022-08-25T04:23:02;4.60;;;4.20;;
14619;SDS011;32125;48.518;9.050;2022-08-25T04:25:28;5.00;;;4.43;;
14619;SDS011;32125;48.518;9.050;2022-08-25T04:27:54;6.03;;;5.33;;
14619;SDS011;32125;48.518;9.050;2022-08-25T04:30:20;3.83;;;3.53;;
14619;SDS011;32125;48.518;9.050;2022-08-25T04:32:46;5.30;;;3.73;;
14619;SDS011;32125;48.518;9.050;2022-08-25T04:35:16;4.50;;;4.10;;
14619;SDS011;32125;48.518;9.050;2022-08-25T04:37:42;4.80;;;4.23;;
14619;SDS011;32125;48.518;9.050;2022-08-25T04:40:09;5.97;;;4.07;;
14619;SDS011;32125;48.518;9.050;2022-08-25T04:42:37;5.30;;;4.20;;
14619;SDS011;32125;48.518;9.050;2022-08-25T04:45:04;4.37;;;3.93;;
14619;SDS011;32125;48.518;9.050;2022-08-25T04:47:32;4.30;;;3.90;;
14619;SDS011;32125;48.518;9.050;2022-08-25T04:50:04;4.33;;;3.93;;
14619;SDS011;32125;48.518;9.050;2022-08-25T04:52:30;5.13;;;4.07;;
14619;SDS011;32125;48.518;9.050;2022-08-25T04:54:56;4.73;;;4.33;;
14619;SDS011;32125;48.518;9.050;2022-08-25T04:57:22;4.77;;;4.37;;
14619;SDS011;32125;48.518;9.050;2022-08-25T04:59:50;4.40;;;4.00;;
14619;SDS011;32125;48.518;9.050;2022-08-25T05:02:16;5.70;;;4.30;;
14619;SDS011;32125;48.518;9.050;2022-08-25T05:04:43;4.20;;;3.90;;
14619;SDS011;32125;48.518;9.050;2022-08-25T05:07:09;4.70;;;4.30;;
14619;SDS011;32125;48.518;9.050;2022-08-25T05:09:35;5.53;;;4.53;;
14619;SDS011;32125;48.518;9.050;2022-08-25T05:12:04;4.57;;;4.07;;
14619;SDS011;32125;48.518;9.050;2022-08-25T05:14:30;4.90;;;4.50;;
14619;SDS011;32125;48.518;9.050;2022-08-25T05:17:00;4.60;;;4.20;;
14619;SDS011;32125;48.518;9.050;2022-08-25T05:19:28;5.23;;;4.73;;
14619;SDS011;32125;48.518;9.050;2022-08-25T05:21:56;6.47;;;4.73;;
14619;SDS011;32125;48.518;9.050;2022-08-25T05:24:24;7.23;;;4.63;;
14619;SDS011;32125;48.518;9.050;2022-08-25T05:26:53;6.70;;;4.63;;
14619;SDS011;32125;48.518;9.050;2022-08-25T05:29:19;6.00;;;4.10;;
14619;SDS011;32125;48.518;9.050;2022-08-25T05:31:48;4.77;;;4.37;;
14619;SDS011;32125;48.518;9.050;2022-08-25T05:34:13;8.60;;;4.70;;
14619;SDS011;32125;48.518;9.050;2022-08-25T05:36:40;5.17;;;4.40;;
14619;SDS011;32125;48.518;9.050;2022-08-25T05:39:07;5.63;;;5.03;;
14619;SDS011;32125;48.518;9.050;2022-08-25T05:41:33;5.17;;;4.67;;
14619;SDS011;32125;48.518;9.050;2022-08-25T05:43:59;6.70;;;4.70;;
14619;SDS011;32125;48.518;9.050;2022-08-25T05:46:25;6.87;;;4.80;;
14619;SDS011;32125;48.518;9.050;2022-08-25T05:48:52;9.07;;;4.83;;
14619;SDS011;32125;48.518;9.050;2022-08-25T05:51:18;5.70;;;5.20;;
14619;SDS011;32125;48.518;9.050;2022-08-25T05:53:48;5.67;;;5.00;;
14619;SDS011;32125;48.518;9.050;2022-08-25T05:56:14;6.53;;;5.37;;
14619;SDS011;32125;48.518;9.050;2022-08-25T05:58:41;5.63;;;4.90;;
14619;SDS011;32125;48.518;9.050;2022-08-25T06:01:08;5.73;;;5.23;;
14619;SDS011;32125;48.518;9.050;2022-08-25T06:03:52;6.57;;;5.40;;
14619;SDS011;32125;48.518;9.050;2022-08-25T06:06:19;9.20;;;5.67;;
14619;SDS011;32125;48.518;9.050;2022-08-25T06:08:46;5.97;;;5.43;;
14619;SDS011;32125;48.518;9.050;2022-08-25T06:11:12;5.73;;;5.27;;
14619;SDS011;32125;48.518;9.050;2022-08-25T06:13:43;6.13;;;5.40;;
14619;SDS011;32125;48.518;9.050;2022-08-25T06:16:09;5.50;;;5.10;;
14619;SDS011;32125;48.518;9.050;2022-08-25T06:18:35;5.00;;;4.60;;
14619;SDS011;32125;48.518;9.050;2022-08-25T06:21:11;6.47;;;5.20;;
14619;SDS011;32125;48.518;9.050;2022-08-25T06:23:37;5.80;;;4.90;;
14619;SDS011;32125;48.518;9.050;2022-08-25T06:26:03;7.97;;;5.13;;
14619;SDS011;32125;48.518;9.050;2022-08-25T06:28:29;7.20;;;4.70;;
14619;SDS011;32125;48.518;9.050;2022-08-25T06:30:59;5.23;;;4.70;;
14619;SDS011;32125;48.518;9.050;2022-08-25T06:33:26;5.70;;;4.40;;
14619;SDS011;32125;48.518;9.050;2022-08-25T06:35:52;7.23;;;4.70;;
14619;SDS011;32125;48.518;9.050;2022-08-25T06:38:24;5.50;;;4.17;;
14619;SDS011;32125;48.518;9.050;2022-08-25T06:40:49;4.23;;;3.93;;
14619;SDS011;32125;48.518;9.050;2022-08-25T06:43:19;4.17;;;3.73;;
14619;SDS011;32125;48.518;9.050;2022-08-25T06:45:45;4.37;;;4.07;;
14619;SDS011;32125;48.518;9.050;2022-08-25T06:48:12;4.23;;;3.83;;
14619;SDS011;32125;48.518;9.050;2022-08-25T06:50:38;4.30;;;3.58;;
14619;SDS011;32125;48.518;9.050;2022-08-25T06:53:05;6.30;;;3.95;;
14619;SDS011;32125;48.518;9.050;2022-08-25T06:55:35;4.80;;;3.72;;
14619;SDS011;32125;48.518;9.050;2022-08-25T06:58:01;6.82;;;4.10;;
14619;SDS011;32125;48.518;9.050;2022-08-25T07:00:27;4.80;;;3.47;;
14619;SDS011;32125;48.518;9.050;2022-08-25T07:02:55;5.45;;;3.10;;
14619;SDS011;32125;48.518;9.050;2022-08-25T07:05:25;5.22;;;3.17;;
14619;SDS011;32125;48.518;9.050;2022-08-25T07:07:53;4.57;;;3.38;;
14619;SDS011;32125;48.518;9.050;2022-08-25T07:10:19;4.43;;;3.30;;
14619;SDS011;32125;48.518;9.050;2022-08-25T07:12:45;5.68;;;3.47;;
14619;SDS011;32125;48.518;9.050;2022-08-25T07:15:11;4.80;;;3.67;;
14619;SDS011;32125;48.518;9.050;2022-08-25T07:17:37;3.67;;;2.90;;
14619;SDS011;32125;48.518;9.050;2022-08-25T07:20:03;5.13;;;3.70;;
14619;SDS011;32125;48.518;9.050;2022-08-25T07:22:29;5.65;;;3.97;;
14619;SDS011;32125;48.518;9.050;2022-08-25T07:24:55;4.68;;;3.60;;
14619;SDS011;32125;48.518;9.050;2022-08-25T07:27:21;4.30;;;3.45;;
14619;SDS011;32125;48.518;9.050;2022-08-25T07:29:50;6.05;;;3.90;;
14619;SDS011;32125;48.518;9.050;2022-08-25T07:32:17;5.07;;;3.60;;
14619;SDS011;32125;48.518;9.050;2022-08-25T07:34:43;4.70;;;3.40;;
14619;SDS011;32125;48.518;9.050;2022-08-25T07:37:27;4.75;;;3.00;;
14619;SDS011;32125;48.518;9.050;2022-08-25T07:39:53;6.63;;;3.40;;
14619;SDS011;32125;48.518;9.050;2022-08-25T07:42:21;4.13;;;3.35;;
14619;SDS011;32125;48.518;9.050;2022-08-25T07:44:49;6.40;;;2.67;;
14619;SDS011;32125;48.518;9.050;2022-08-25T07:47:17;5.38;;;3.20;;
14619;SDS011;32125;48.518;9.050;2022-08-25T07:49:43;5.63;;;3.97;;
14619;SDS011;32125;48.518;9.050;2022-08-25T07:52:09;3.90;;;2.80;;
14619;SDS011;32125;48.518;9.050;2022-08-25T07:54:34;6.78;;;2.92;;
14619;SDS011;32125;48.518;9.050;2022-08-25T07:57:04;6.10;;;3.60;;
14619;SDS011;32125;48.518;9.050;2022-08-25T07:59:32;9.98;;;3.72;;
14619;SDS011;32125;48.518;9.050;2022-08-25T08:01:57;3.95;;;3.05;;
14619;SDS011;32125;48.518;9.050;2022-08-25T08:04:25;4.20;;;3.90;;
14619;SDS011;32125;48.518;9.050;2022-08-25T08:06:53;4.30;;;3.38;;
14619;SDS011;32125;48.518;9.050;2022-08-25T08:09:19;5.07;;;3.92;;
14619;SDS011;32125;48.518;9.050;2022-08-25T08:11:44;4.07;;;3.72;;
14619;SDS011;32125;48.518;9.050;2022-08-25T08:14:10;4.20;;;3.80;;
14619;SDS011;32125;48.518;9.050;2022-08-25T08:16:37;5.45;;;3.78;;
14619;SDS011;32125;48.518;9.050;2022-08-25T08:19:03;4.30;;;3.90;;
14619;SDS011;32125;48.518;9.050;2022-08-25T08:21:33;3.78;;;3.40;;
14619;SDS011;32125;48.518;9.050;2022-08-25T08:24:00;4.70;;;4.20;;
14619;SDS011;32125;48.518;9.050;2022-08-25T08:26:29;5.45;;;4.18;;
14619;SDS011;32125;48.518;9.050;2022-08-25T08:28:58;5.28;;;3.83;;
14619;SDS011;32125;48.518;9.050;2022-08-25T08:31:24;5.13;;;3.90;;
14619;SDS011;32125;48.518;9.050;2022-08-25T08:33:51;3.90;;;3.55;;
14619;SDS011;32125;48.518;9.050;2022-08-25T08:36:18;6.18;;;4.20;;
14619;SDS011;32125;48.518;9.050;2022-08-25T08:38:46;5.22;;;4.22;;
14619;SDS011;32125;48.518;9.050;2022-08-25T08:46:52;4.50;;;4.20;;
14619;SDS011;32125;48.518;9.050;2022-08-25T08:49:22;4.55;;;4.15;;
14619;SDS011;32125;48.518;9.050;2022-08-25T08:51:55;4.30;;;3.90;;
14619;SDS011;32125;48.518;9.050;2022-08-25T08:54:24;5.00;;;3.72;;
14619;SDS011;32125;48.518;9.050;2022-08-25T08:56:58;4.50;;;3.80;;
14619;SDS011;32125;48.518;9.050;2022-08-25T08:59:33;6.85;;;4.00;;
14619;SDS011;32125;48.518;9.050;2022-08-25T09:02:05;4.90;;;3.50;;
14619;SDS011;32125;48.518;9.050;2022-08-25T09:04:47;4.20;;;3.80;;
14619;SDS011;32125;48.518;9.050;2022-08-25T09:07:20;4.78;;;4.30;;
14619;SDS011;32125;48.518;9.050;2022-08-25T09:09:48;4.35;;;3.95;;
14619;SDS011;32125;48.518;9.050;2022-08-25T09:15:12;4.13;;;3.80;;
14619;SDS011;32125;48.518;9.050;2022-08-25T09:18:27;4.22;;;3.83;;
14619;SDS011;32125;48.518;9.050;2022-08-25T09:21:33;4.13;;;3.83;;
14619;SDS011;32125;48.518;9.050;2022-08-25T09:29:23;3.78;;;3.47;;
14619;SDS011;32125;48.518;9.050;2022-08-25T09:31:51;3.80;;;3.50;;
14619;SDS011;32125;48.518;9.050;2022-08-25T09:34:22;3.80;;;3.50;;
14619;SDS011;32125;48.518;9.050;2022-08-25T09:36:52;3.70;;;3.40;;
14619;SDS011;32125;48.518;9.050;2022-08-25T09:39:18;4.20;;;3.80;;
14619;SDS011;32125;48.518;9.050;2022-08-25T09:41:49;3.60;;;3.30;;
14619;SDS011;32125;48.518;9.050;2022-08-25T09:44:23;3.95;;;3.65;;
14619;SDS011;32125;48.518;9.050;2022-08-25T09:46:57;3.97;;;3.67;;
14619;SDS011;32125;48.518;9.050;2022-08-25T09:49:35;4.65;;;3.67;;
14619;SDS011;32125;48.518;9.050;2022-08-25T09:52:25;4.10;;;3.40;;
14619;SDS011;32125;48.518;9.050;2022-08-25T09:55:22;3.53;;;3.22;;
14619;SDS011;32125;48.518;9.050;2022-08-25T10:02:41;3.58;;;3.30;;
14619;SDS011;32125;48.518;9.050;2022-08-25T10:05:18;4.28;;;3.45;;
14619;SDS011;32125;48.518;9.050;2022-08-25T10:07:56;4.75;;;3.55;;
14619;SDS011;32125;48.518;9.050;2022-08-25T10:10:27;5.03;;;3.55;;
14619;SDS011;32125;48.518;9.050;2022-08-25T10:12:56;4.38;;;3.70;;
14619;SDS011;32125;48.518;9.050;2022-08-25T10:15:30;5.18;;;3.50;;
14619;SDS011;32125;48.518;9.050;2022-08-25T10:23:33;4.10;;;3.70;;
14619;SDS011;32125;48.518;9.050;2022-08-25T10:26:02;3.55;;;3.30;;
14619;SDS011;32125;48.518;9.050;2022-08-25T10:31:13;3.72;;;3.42;;
14619;SDS011;32125;48.518;9.050;2022-08-25T10:33:54;3.65;;;3.35;;
14619;SDS011;32125;48.518;9.050;2022-08-25T10:39:22;3.60;;;3.28;;
14619;SDS011;32125;48.518;9.050;2022-08-25T10:45:02;3.78;;;3.50;;
14619;SDS011;32125;48.518;9.050;2022-08-25T10:53:04;4.15;;;3.30;;
14619;SDS011;32125;48.518;9.050;2022-08-25T11:00:40;3.30;;;3.00;;
14619;SDS011;32125;48.518;9.050;2022-08-25T11:06:02;3.50;;;3.20;;
14619;SDS011;32125;48.518;9.050;2022-08-25T11:08:33;3.45;;;3.15;;
14619;SDS011;32125;48.518;9.050;2022-08-25T11:11:12;2.97;;;2.78;;
14619;SDS011;32125;48.518;9.050;2022-08-25T11:16:50;3.10;;;2.90;;
14619;SDS011;32125;48.518;9.050;2022-08-25T11:19:28;3.40;;;3.10;;
14619;SDS011;32125;48.518;9.050;2022-08-25T11:21:59;3.28;;;3.00;;
14619;SDS011;32125;48.518;9.050;2022-08-25T11:27:54;4.22;;;2.60;;
14619;SDS011;32125;48.518;9.050;2022-08-25T11:30:27;3.20;;;2.88;;
14619;SDS011;32125;48.518;9.050;2022-08-25T11:32:53;3.70;;;3.00;;
14619;SDS011;32125;48.518;9.050;2022-08-25T11:35:40;5.10;;;2.70;;
14619;SDS011;32125;48.518;9.050;2022-08-25T11:51:27;3.05;;;2.60;;
14619;SDS011;32125;48.518;9.050;2022-08-25T11:57:17;2.83;;;2.58;;
14619;SDS011;32125;48.518;9.050;2022-08-25T12:05:01;2.53;;;2.42;;
14619;SDS011;32125;48.518;9.050;2022-08-25T12:10:24;2.80;;;2.60;;
14619;SDS011;32125;48.518;9.050;2022-08-25T12:12:55;3.05;;;2.75;;
14619;SDS011;32125;48.518;9.050;2022-08-25T12:21:27;3.03;;;2.47;;
14619;SDS011;32125;48.518;9.050;2022-08-25T12:29:29;4.05;;;2.47;;
14619;SDS011;32125;48.518;9.050;2022-08-25T12:37:01;2.33;;;2.20;;
14619;SDS011;32125;48.518;9.050;2022-08-25T12:39:35;2.50;;;2.30;;
14619;SDS011;32125;48.518;9.050;2022-08-25T12:42:04;2.88;;;2.30;;
14619;SDS011;32125;48.518;9.050;2022-08-25T12:49:43;2.85;;;2.20;;
14619;SDS011;32125;48.518;9.050;2022-08-25T12:52:13;2.75;;;2.10;;
14619;SDS011;32125;48.518;9.050;2022-08-25T12:54:44;2.97;;;2.30;;
14619;SDS011;32125;48.518;9.050;2022-08-25T12:57:37;2.30;;;2.08;;
14619;SDS011;32125;48.518;9.050;2022-08-25T13:00:16;2.75;;;2.08;;
14619;SDS011;32125;48.518;9.050;2022-08-25T13:10:50;2.50;;;2.30;;
14619;SDS011;32125;48.518;9.050;2022-08-25T13:16:08;1.95;;;1.85;;
14619;SDS011;32125;48.518;9.050;2022-08-25T13:18:43;2.10;;;2.00;;
14619;SDS011;32125;48.518;9.050;2022-08-25T13:21:19;2.30;;;2.20;;
14619;SDS011;32125;48.518;9.050;2022-08-25T13:23:51;2.13;;;2.00;;
14619;SDS011;32125;48.518;9.050;2022-08-25T13:28:50;2.47;;;2.28;;
14619;SDS011;32125;48.518;9.050;2022-08-25T13:31:21;2.17;;;2.03;;
14619;SDS011;32125;48.518;9.050;2022-08-25T13:34:00;2.13;;;2.03;;
14619;SDS011;32125;48.518;9.050;2022-08-25T13:36:28;2.10;;;2.00;;
14619;SDS011;32125;48.518;9.050;2022-08-25T13:39:19;2.17;;;2.00;;
14619;SDS011;32125;48.518;9.050;2022-08-25T13:41:50;2.45;;;2.08;;
14619;SDS011;32125;48.518;9.050;2022-08-25T13:44:17;2.63;;;2.17;;
14619;SDS011;32125;48.518;9.050;2022-08-25T13:46:44;2.00;;;1.90;;
14619;SDS011;32125;48.518;9.050;2022-08-25T13:49:11;2.67;;;2.00;;
14619;SDS011;32125;48.518;9.050;2022-08-25T13:51:52;2.65;;;2.00;;
14619;SDS011;32125;48.518;9.050;2022-08-25T13:57:24;2.28;;;1.92;;
14619;SDS011;32125;48.518;9.050;2022-08-25T13:59:58;2.85;;;1.95;;
14619;SDS011;32125;48.518;9.050;2022-08-25T14:02:49;2.33;;;2.00;;
14619;SDS011;32125;48.518;9.050;2022-08-25T14:05:33;3.50;;;2.13;;
14619;SDS011;32125;48.518;9.050;2022-08-25T14:08:30;2.60;;;2.00;;
14619;SDS011;32125;48.518;9.050;2022-08-25T14:11:43;2.42;;;1.98;;
14619;SDS011;32125;48.518;9.050;2022-08-25T14:17:19;2.08;;;1.98;;
14619;SDS011;32125;48.518;9.050;2022-08-25T14:19:31;1.80;;;1.70;;
14619;SDS011;32125;48.518;9.050;2022-08-25T14:21:58;2.50;;;2.30;;
14619;SDS011;32125;48.518;9.050;2022-08-25T14:24:32;2.40;;;2.30;;
14619;SDS011;32125;48.518;9.050;2022-08-25T14:27:00;2.15;;;2.05;;
14619;SDS011;32125;48.518;9.050;2022-08-25T14:29:26;2.75;;;2.05;;
14619;SDS011;32125;48.518;9.050;2022-08-25T14:31:52;3.72;;;2.10;;
14619;SDS011;32125;48.518;9.050;2022-08-25T14:34:24;2.30;;;2.10;;
14619;SDS011;32125;48.518;9.050;2022-08-25T14:36:53;2.30;;;2.10;;
14619;SDS011;32125;48.518;9.050;2022-08-25T14:39:19;2.25;;;2.05;;
14619;SDS011;32125;48.518;9.050;2022-08-25T14:41:45;2.47;;;2.28;;
14619;SDS011;32125;48.518;9.050;2022-08-25T14:44:13;2.30;;;2.10;;
14619;SDS011;32125;48.518;9.050;2022-08-25T14:46:48;2.20;;;2.10;;
14619;SDS011;32125;48.518;9.050;2022-08-25T14:49:17;2.08;;;1.98;;
14619;SDS011;32125;48.518;9.050;2022-08-25T14:51:44;2.33;;;2.20;;
14619;SDS011;32125;48.518;9.050;2022-08-25T14:54:11;3.25;;;2.05;;
14619;SDS011;32125;48.518;9.050;2022-08-25T14:56:39;3.50;;;1.95;;
14619;SDS011;32125;48.518;9.050;2022-08-25T14:59:06;2.35;;;2.08;;
14619;SDS011;32125;48.518;9.050;2022-08-25T15:01:35;2.05;;;1.95;;
14619;SDS011;32125;48.518;9.050;2022-08-25T15:06:35;2.00;;;1.90;;
14619;SDS011;32125;48.518;9.050;2022-08-25T15:09:06;2.20;;;2.00;;
14619;SDS011;32125;48.518;9.050;2022-08-25T15:11:35;2.30;;;2.10;;
14619;SDS011;32125;48.518;9.050;2022-08-25T15:14:05;2.20;;;2.10;;
14619;SDS011;32125;48.518;9.050;2022-08-25T15:16:34;2.08;;;1.98;;
14619;SDS011;32125;48.518;9.050;2022-08-25T15:19:07;2.53;;;2.20;;
14619;SDS011;32125;48.518;9.050;2022-08-25T15:21:37;2.10;;;2.00;;
14619;SDS011;32125;48.518;9.050;2022-08-25T15:24:04;2.10;;;1.90;;
14619;SDS011;32125;48.518;9.050;2022-08-25T15:26:33;2.40;;;2.20;;
14619;SDS011;32125;48.518;9.050;2022-08-25T15:29:03;2.63;;;2.10;;
14619;SDS011;32125;48.518;9.050;2022-08-25T15:31:31;2.47;;;2.30;;
14619;SDS011;32125;48.518;9.050;2022-08-25T15:33:57;2.60;;;2.40;;
14619;SDS011;32125;48.518;9.050;2022-08-25T15:36:23;3.53;;;2.60;;
14619;SDS011;32125;48.518;9.050;2022-08-25T15:38:52;2.55;;;2.35;;
14619;SDS011;32125;48.518;9.050;2022-08-25T15:41:18;2.55;;;2.38;;
14619;SDS011;32125;48.518;9.050;2022-08-25T15:43:46;2.47;;;2.20;;
14619;SDS011;32125;48.518;9.050;2022-08-25T15:46:13;2.35;;;2.25;;
14619;SDS011;32125;48.518;9.050;2022-08-25T15:48:44;2.30;;;2.20;;
14619;SDS011;32125;48.518;9.050;2022-08-25T15:51:10;2.38;;;2.17;;
14619;SDS011;32125;48.518;9.050;2022-08-25T15:53:37;2.28;;;2.08;;
14619;SDS011;32125;48.518;9.050;2022-08-25T15:56:04;2.95;;;2.10;;
14619;SDS011;32125;48.518;9.050;2022-08-25T15:58:30;2.35;;;2.20;;
14619;SDS011;32125;48.518;9.050;2022-08-25T16:00:56;2.17;;;2.08;;
14619;SDS011;32125;48.518;9.050;2022-08-25T16:03:22;2.28;;;2.17;;
14619;SDS011;32125;48.518;9.050;2022-08-25T16:05:49;2.35;;;2.20;;
14619;SDS011;32125;48.518;9.050;2022-08-25T16:08:15;2.28;;;2.13;;
14619;SDS011;32125;48.518;9.050;2022-08-25T16:10:41;2.30;;;2.03;;
14619;SDS011;32125;48.518;9.050;2022-08-25T16:13:07;2.15;;;1.95;;
14619;SDS011;32125;48.518;9.050;2022-08-25T16:15:33;2.47;;;2.28;;
14619;SDS011;32125;48.518;9.050;2022-08-25T16:18:02;2.10;;;2.00;;
14619;SDS011;32125;48.518;9.050;2022-08-25T16:20:29;2.10;;;2.00;;
14619;SDS011;32125;48.518;9.050;2022-08-25T16:22:58;2.22;;;2.03;;
14619;SDS011;32125;48.518;9.050;2022-08-25T16:25:28;2.13;;;1.92;;
14619;SDS011;32125;48.518;9.050;2022-08-25T16:27:54;3.10;;;2.30;;
14619;SDS011;32125;48.518;9.050;2022-08-25T16:30:21;2.20;;;2.10;;
14619;SDS011;32125;48.518;9.050;2022-08-25T16:32:46;2.10;;;2.00;;
14619;SDS011;32125;48.518;9.050;2022-08-25T16:35:12;2.13;;;2.03;;
14619;SDS011;32125;48.518;9.050;2022-08-25T16:37:38;2.10;;;2.00;;
14619;SDS011;32125;48.518;9.050;2022-08-25T16:40:05;3.03;;;2.30;;
14619;SDS011;32125;48.518;9.050;2022-08-25T16:42:31;4.05;;;2.17;;
14619;SDS011;32125;48.518;9.050;2022-08-25T16:44:57;2.30;;;2.10;;
14619;SDS011;32125;48.518;9.050;2022-08-25T16:47:22;2.28;;;2.00;;
14619;SDS011;32125;48.518;9.050;2022-08-25T16:49:48;2.78;;;2.30;;
14619;SDS011;32125;48.518;9.050;2022-08-25T16:52:17;2.40;;;2.20;;
14619;SDS011;32125;48.518;9.050;2022-08-25T16:55:09;3.03;;;2.10;;
14619;SDS011;32125;48.518;9.050;2022-08-25T16:57:39;2.28;;;2.17;;
14619;SDS011;32125;48.518;9.050;2022-08-25T17:00:08;2.30;;;2.10;;
14619;SDS011;32125;48.518;9.050;2022-08-25T17:02:36;2.95;;;2.20;;
14619;SDS011;32125;48.518;9.050;2022-08-25T17:05:02;2.35;;;2.15;;
14619;SDS011;32125;48.518;9.050;2022-08-25T17:07:30;2.40;;;2.20;;
14619;SDS011;32125;48.518;9.050;2022-08-25T17:09:59;2.42;;;2.22;;
14619;SDS011;32125;48.518;9.050;2022-08-25T17:12:25;2.30;;;2.20;;
14619;SDS011;32125;48.518;9.050;2022-08-25T17:14:51;3.45;;;2.33;;